sensor_id;sensor_type;location;lat;lon;timestamp;P1;durP1;ratioP1;P2;durP2;ratioP2
249;SDS011;109;19.806;-70.704;2023-04-03T00:00:31;42.13;;;7.50;;
249;SDS011;109;19.806;-70.704;2023-04-03T00:02:58;34.13;;;7.60;;
249;SDS011;109;19.806;-70.704;2023-04-03T00:05:24;23.83;;;6.03;;
249;SDS011;109;19.806;-70.704;2023-04-03T00:07:52;38.63;;;6.03;;
249;SDS011;109;19.806;-70.704;2023-04-03T00:10:18;31.30;;;5.90;;
249;SDS011;109;19.806;-70.704;2023-04-03T00:12:44;31.43;;;6.00;;
249;SDS011;109;19.806;-70.704;2023-04-03T00:15:11;33.30;;;7.03;;
249;SDS011;109;19.806;-70.704;2023-04-03T00:17:38;22.93;;;5.87;;
249;SDS011;109;19.806;-70.704;2023-04-03T00:20:05;27.60;;;6.10;;
249;SDS011;109;19.806;-70.704;2023-04-03T00:22:31;35.63;;;5.50;;
249;SDS011;109;19.806;-70.704;2023-04-03T00:24:58;29.33;;;7.00;;
249;SDS011;109;19.806;-70.704;2023-04-03T00:27:24;42.43;;;7.57;;
249;SDS011;109;19.806;-70.704;2023-04-03T00:29:51;26.10;;;5.83;;
249;SDS011;109;19.806;-70.704;2023-04-03T00:32:18;32.13;;;7.50;;
249;SDS011;109;19.806;-70.704;2023-04-03T00:34:44;37.10;;;7.20;;
249;SDS011;109;19.806;-70.704;2023-04-03T00:37:11;38.90;;;7.23;;
249;SDS011;109;19.806;-70.704;2023-04-03T00:39:37;34.47;;;6.80;;
249;SDS011;109;19.806;-70.704;2023-04-03T00:42:10;33.47;;;6.93;;
249;SDS011;109;19.806;-70.704;2023-04-03T00:47:11;28.17;;;6.40;;
249;SDS011;109;19.806;-70.704;2023-04-03T00:49:39;18.83;;;6.10;;
249;SDS011;109;19.806;-70.704;2023-04-03T00:52:13;18.73;;;5.63;;
249;SDS011;109;19.806;-70.704;2023-04-03T00:54:50;42.77;;;8.10;;
249;SDS011;109;19.806;-70.704;2023-04-03T00:57:17;39.13;;;8.63;;
249;SDS011;109;19.806;-70.704;2023-04-03T00:59:53;24.60;;;7.47;;
249;SDS011;109;19.806;-70.704;2023-04-03T01:02:30;34.77;;;7.53;;
249;SDS011;109;19.806;-70.704;2023-04-03T01:04:56;29.67;;;6.30;;
249;SDS011;109;19.806;-70.704;2023-04-03T01:07:30;33.80;;;6.10;;
249;SDS011;109;19.806;-70.704;2023-04-03T01:10:01;28.77;;;6.07;;
249;SDS011;109;19.806;-70.704;2023-04-03T01:12:37;38.83;;;6.70;;
249;SDS011;109;19.806;-70.704;2023-04-03T01:15:12;24.30;;;6.10;;
249;SDS011;109;19.806;-70.704;2023-04-03T01:17:53;27.63;;;6.77;;
249;SDS011;109;19.806;-70.704;2023-04-03T01:25:38;31.93;;;6.10;;
249;SDS011;109;19.806;-70.704;2023-04-03T01:28:15;28.37;;;6.00;;
249;SDS011;109;19.806;-70.704;2023-04-03T01:33:55;35.10;;;6.70;;
249;SDS011;109;19.806;-70.704;2023-04-03T01:36:23;19.60;;;6.30;;
249;SDS011;109;19.806;-70.704;2023-04-03T01:38:59;24.17;;;6.93;;
249;SDS011;109;19.806;-70.704;2023-04-03T01:41:27;25.10;;;7.50;;
249;SDS011;109;19.806;-70.704;2023-04-03T01:44:10;28.10;;;8.20;;
249;SDS011;109;19.806;-70.704;2023-04-03T01:46:44;29.20;;;7.33;;
249;SDS011;109;19.806;-70.704;2023-04-03T01:49:11;33.57;;;8.90;;
249;SDS011;109;19.806;-70.704;2023-04-03T01:51:44;27.83;;;7.83;;
249;SDS011;109;19.806;-70.704;2023-04-03T01:54:10;29.73;;;7.00;;
249;SDS011;109;19.806;-70.704;2023-04-03T01:56:44;28.23;;;7.23;;
249;SDS011;109;19.806;-70.704;2023-04-03T01:59:12;21.43;;;7.40;;
249;SDS011;109;19.806;-70.704;2023-04-03T02:01:45;19.27;;;6.90;;
249;SDS011;109;19.806;-70.704;2023-04-03T02:04:12;26.43;;;7.80;;
249;SDS011;109;19.806;-70.704;2023-04-03T02:06:46;20.40;;;8.17;;
249;SDS011;109;19.806;-70.704;2023-04-03T02:09:12;38.70;;;8.47;;
249;SDS011;109;19.806;-70.704;2023-04-03T02:11:46;31.30;;;8.20;;
249;SDS011;109;19.806;-70.704;2023-04-03T02:14:12;25.87;;;8.73;;
249;SDS011;109;19.806;-70.704;2023-04-03T02:16:46;27.43;;;8.00;;
249;SDS011;109;19.806;-70.704;2023-04-03T02:19:13;36.43;;;8.47;;
249;SDS011;109;19.806;-70.704;2023-04-03T02:21:46;37.47;;;8.27;;
249;SDS011;109;19.806;-70.704;2023-04-03T02:24:21;22.93;;;8.27;;
249;SDS011;109;19.806;-70.704;2023-04-03T02:26:55;27.43;;;8.30;;
249;SDS011;109;19.806;-70.704;2023-04-03T02:29:21;25.97;;;8.80;;
249;SDS011;109;19.806;-70.704;2023-04-03T02:31:55;21.40;;;7.87;;
249;SDS011;109;19.806;-70.704;2023-04-03T02:34:35;23.67;;;8.53;;
249;SDS011;109;19.806;-70.704;2023-04-03T02:37:01;29.13;;;8.23;;
249;SDS011;109;19.806;-70.704;2023-04-03T02:39:35;29.47;;;9.20;;
249;SDS011;109;19.806;-70.704;2023-04-03T02:42:02;32.97;;;9.23;;
249;SDS011;109;19.806;-70.704;2023-04-03T02:44:36;30.23;;;8.93;;
249;SDS011;109;19.806;-70.704;2023-04-03T02:47:02;23.63;;;9.33;;
249;SDS011;109;19.806;-70.704;2023-04-03T02:49:35;25.00;;;8.83;;
249;SDS011;109;19.806;-70.704;2023-04-03T02:52:01;21.40;;;8.80;;
249;SDS011;109;19.806;-70.704;2023-04-03T02:54:35;21.77;;;8.57;;
249;SDS011;109;19.806;-70.704;2023-04-03T02:57:05;19.80;;;8.73;;
249;SDS011;109;19.806;-70.704;2023-04-03T02:59:40;25.00;;;8.90;;
249;SDS011;109;19.806;-70.704;2023-04-03T03:02:08;23.93;;;9.13;;
249;SDS011;109;19.806;-70.704;2023-04-03T03:04:41;31.67;;;9.97;;
249;SDS011;109;19.806;-70.704;2023-04-03T03:07:08;29.50;;;8.87;;
249;SDS011;109;19.806;-70.704;2023-04-03T03:09:48;24.37;;;8.23;;
249;SDS011;109;19.806;-70.704;2023-04-03T03:12:22;31.87;;;9.27;;
249;SDS011;109;19.806;-70.704;2023-04-03T03:14:49;23.87;;;7.90;;
249;SDS011;109;19.806;-70.704;2023-04-03T03:17:22;31.43;;;9.20;;
249;SDS011;109;19.806;-70.704;2023-04-03T03:19:49;27.77;;;8.30;;
249;SDS011;109;19.806;-70.704;2023-04-03T03:22:22;31.00;;;10.13;;
249;SDS011;109;19.806;-70.704;2023-04-03T03:24:49;22.63;;;7.57;;
249;SDS011;109;19.806;-70.704;2023-04-03T03:27:22;23.60;;;9.00;;
249;SDS011;109;19.806;-70.704;2023-04-03T03:29:49;26.53;;;8.40;;
249;SDS011;109;19.806;-70.704;2023-04-03T03:32:23;26.10;;;8.40;;
249;SDS011;109;19.806;-70.704;2023-04-03T03:35:03;23.07;;;8.20;;
249;SDS011;109;19.806;-70.704;2023-04-03T03:37:29;34.03;;;8.37;;
249;SDS011;109;19.806;-70.704;2023-04-03T03:40:03;20.50;;;8.13;;
249;SDS011;109;19.806;-70.704;2023-04-03T03:42:31;28.10;;;8.10;;
249;SDS011;109;19.806;-70.704;2023-04-03T03:45:04;25.57;;;8.53;;
249;SDS011;109;19.806;-70.704;2023-04-03T03:47:31;26.77;;;8.70;;
249;SDS011;109;19.806;-70.704;2023-04-03T03:50:11;25.50;;;8.93;;
249;SDS011;109;19.806;-70.704;2023-04-03T03:52:45;29.57;;;8.53;;
249;SDS011;109;19.806;-70.704;2023-04-03T03:55:11;24.47;;;7.63;;
249;SDS011;109;19.806;-70.704;2023-04-03T03:57:50;24.90;;;8.90;;
249;SDS011;109;19.806;-70.704;2023-04-03T04:00:24;29.80;;;8.37;;
249;SDS011;109;19.806;-70.704;2023-04-03T04:02:54;26.20;;;8.80;;
249;SDS011;109;19.806;-70.704;2023-04-03T04:05:30;26.23;;;8.33;;
249;SDS011;109;19.806;-70.704;2023-04-03T04:07:58;31.17;;;8.70;;
249;SDS011;109;19.806;-70.704;2023-04-03T04:10:39;29.20;;;7.87;;
249;SDS011;109;19.806;-70.704;2023-04-03T04:13:14;22.97;;;7.97;;
249;SDS011;109;19.806;-70.704;2023-04-03T04:15:42;30.90;;;9.47;;
249;SDS011;109;19.806;-70.704;2023-04-03T04:18:16;25.63;;;8.17;;
249;SDS011;109;19.806;-70.704;2023-04-03T04:20:45;24.13;;;8.23;;
249;SDS011;109;19.806;-70.704;2023-04-03T04:23:20;21.17;;;7.73;;
249;SDS011;109;19.806;-70.704;2023-04-03T04:25:49;28.30;;;8.70;;
249;SDS011;109;19.806;-70.704;2023-04-03T04:28:23;17.30;;;7.50;;
249;SDS011;109;19.806;-70.704;2023-04-03T04:30:52;28.40;;;9.03;;
249;SDS011;109;19.806;-70.704;2023-04-03T04:33:27;26.17;;;9.47;;
249;SDS011;109;19.806;-70.704;2023-04-03T04:36:10;44.83;;;9.60;;
249;SDS011;109;19.806;-70.704;2023-04-03T04:38:37;23.00;;;8.73;;
249;SDS011;109;19.806;-70.704;2023-04-03T04:41:11;31.37;;;8.90;;
249;SDS011;109;19.806;-70.704;2023-04-03T04:43:38;41.53;;;9.87;;
249;SDS011;109;19.806;-70.704;2023-04-03T04:46:19;27.10;;;8.80;;
249;SDS011;109;19.806;-70.704;2023-04-03T04:48:56;32.63;;;9.67;;
249;SDS011;109;19.806;-70.704;2023-04-03T04:51:26;24.37;;;8.97;;
249;SDS011;109;19.806;-70.704;2023-04-03T04:53:59;30.17;;;9.13;;
249;SDS011;109;19.806;-70.704;2023-04-03T04:56:26;28.80;;;10.03;;
249;SDS011;109;19.806;-70.704;2023-04-03T04:59:00;26.20;;;9.43;;
249;SDS011;109;19.806;-70.704;2023-04-03T05:01:27;28.37;;;9.57;;
249;SDS011;109;19.806;-70.704;2023-04-03T05:04:14;27.53;;;10.00;;
249;SDS011;109;19.806;-70.704;2023-04-03T05:06:52;33.47;;;9.40;;
249;SDS011;109;19.806;-70.704;2023-04-03T05:09:28;22.70;;;9.80;;
249;SDS011;109;19.806;-70.704;2023-04-03T05:12:02;27.90;;;9.40;;
249;SDS011;109;19.806;-70.704;2023-04-03T05:14:41;27.63;;;9.67;;
249;SDS011;109;19.806;-70.704;2023-04-03T05:17:15;28.27;;;10.30;;
249;SDS011;109;19.806;-70.704;2023-04-03T05:19:47;32.13;;;9.67;;
249;SDS011;109;19.806;-70.704;2023-04-03T05:22:22;24.87;;;9.43;;
249;SDS011;109;19.806;-70.704;2023-04-03T05:24:51;45.27;;;9.73;;
249;SDS011;109;19.806;-70.704;2023-04-03T05:27:25;24.53;;;8.67;;
249;SDS011;109;19.806;-70.704;2023-04-03T05:29:55;48.50;;;9.90;;
249;SDS011;109;19.806;-70.704;2023-04-03T05:32:30;31.93;;;10.40;;
249;SDS011;109;19.806;-70.704;2023-04-03T05:35:32;30.07;;;9.20;;
249;SDS011;109;19.806;-70.704;2023-04-03T05:38:05;20.60;;;8.87;;
249;SDS011;109;19.806;-70.704;2023-04-03T05:40:32;21.70;;;9.00;;
249;SDS011;109;19.806;-70.704;2023-04-03T05:43:06;21.70;;;8.33;;
249;SDS011;109;19.806;-70.704;2023-04-03T05:45:35;24.10;;;9.07;;
249;SDS011;109;19.806;-70.704;2023-04-03T05:48:08;30.00;;;9.00;;
249;SDS011;109;19.806;-70.704;2023-04-03T05:50:34;29.27;;;9.23;;
249;SDS011;109;19.806;-70.704;2023-04-03T05:53:22;20.87;;;8.57;;
249;SDS011;109;19.806;-70.704;2023-04-03T05:56:02;21.70;;;8.40;;
249;SDS011;109;19.806;-70.704;2023-04-03T05:58:38;25.93;;;8.83;;
249;SDS011;109;19.806;-70.704;2023-04-03T06:01:05;23.43;;;8.63;;
249;SDS011;109;19.806;-70.704;2023-04-03T06:03:38;20.73;;;8.80;;
249;SDS011;109;19.806;-70.704;2023-04-03T06:06:15;23.07;;;8.50;;
249;SDS011;109;19.806;-70.704;2023-04-03T06:08:49;20.40;;;7.97;;
249;SDS011;109;19.806;-70.704;2023-04-03T06:11:16;19.37;;;8.70;;
249;SDS011;109;19.806;-70.704;2023-04-03T06:13:50;23.03;;;8.60;;
249;SDS011;109;19.806;-70.704;2023-04-03T06:16:17;21.67;;;7.63;;
249;SDS011;109;19.806;-70.704;2023-04-03T06:18:50;17.87;;;8.27;;
249;SDS011;109;19.806;-70.704;2023-04-03T06:21:16;18.57;;;7.87;;
249;SDS011;109;19.806;-70.704;2023-04-03T06:23:50;19.10;;;7.60;;
249;SDS011;109;19.806;-70.704;2023-04-03T06:26:17;24.57;;;8.70;;
249;SDS011;109;19.806;-70.704;2023-04-03T06:28:50;19.53;;;7.50;;
249;SDS011;109;19.806;-70.704;2023-04-03T06:31:16;19.90;;;7.53;;
249;SDS011;109;19.806;-70.704;2023-04-03T06:33:49;26.87;;;8.70;;
249;SDS011;109;19.806;-70.704;2023-04-03T06:36:29;22.50;;;8.07;;
249;SDS011;109;19.806;-70.704;2023-04-03T06:38:55;22.33;;;8.00;;
249;SDS011;109;19.806;-70.704;2023-04-03T06:41:29;18.27;;;6.83;;
249;SDS011;109;19.806;-70.704;2023-04-03T06:44:11;19.97;;;6.93;;
249;SDS011;109;19.806;-70.704;2023-04-03T06:46:48;21.97;;;7.07;;
249;SDS011;109;19.806;-70.704;2023-04-03T06:49:34;19.00;;;7.30;;
249;SDS011;109;19.806;-70.704;2023-04-03T06:52:09;24.67;;;6.90;;
249;SDS011;109;19.806;-70.704;2023-04-03T06:54:37;22.00;;;6.97;;
249;SDS011;109;19.806;-70.704;2023-04-03T06:57:11;18.70;;;6.93;;
249;SDS011;109;19.806;-70.704;2023-04-03T06:59:37;21.03;;;6.97;;
249;SDS011;109;19.806;-70.704;2023-04-03T07:02:11;38.17;;;7.60;;
249;SDS011;109;19.806;-70.704;2023-04-03T07:04:38;17.97;;;6.47;;
249;SDS011;109;19.806;-70.704;2023-04-03T07:07:11;30.03;;;6.90;;
249;SDS011;109;19.806;-70.704;2023-04-03T07:09:37;23.30;;;6.70;;
249;SDS011;109;19.806;-70.704;2023-04-03T07:12:10;13.60;;;6.77;;
249;SDS011;109;19.806;-70.704;2023-04-03T07:14:36;24.37;;;7.13;;
249;SDS011;109;19.806;-70.704;2023-04-03T07:17:09;22.90;;;7.10;;
249;SDS011;109;19.806;-70.704;2023-04-03T07:19:35;24.30;;;6.77;;
249;SDS011;109;19.806;-70.704;2023-04-03T07:22:09;22.53;;;6.40;;
249;SDS011;109;19.806;-70.704;2023-04-03T07:24:43;20.47;;;6.40;;
249;SDS011;109;19.806;-70.704;2023-04-03T07:27:17;22.03;;;6.43;;
249;SDS011;109;19.806;-70.704;2023-04-03T07:29:43;16.20;;;6.33;;
249;SDS011;109;19.806;-70.704;2023-04-03T07:32:17;24.17;;;6.90;;
249;SDS011;109;19.806;-70.704;2023-04-03T07:34:57;21.67;;;7.30;;
249;SDS011;109;19.806;-70.704;2023-04-03T07:37:23;25.43;;;6.43;;
249;SDS011;109;19.806;-70.704;2023-04-03T07:39:56;24.13;;;6.73;;
249;SDS011;109;19.806;-70.704;2023-04-03T07:42:24;21.00;;;6.03;;
249;SDS011;109;19.806;-70.704;2023-04-03T07:45:00;22.47;;;7.17;;
249;SDS011;109;19.806;-70.704;2023-04-03T07:47:27;15.70;;;6.70;;
249;SDS011;109;19.806;-70.704;2023-04-03T07:50:00;20.17;;;5.83;;
249;SDS011;109;19.806;-70.704;2023-04-03T07:52:26;22.20;;;6.00;;
249;SDS011;109;19.806;-70.704;2023-04-03T07:54:59;16.33;;;6.73;;
249;SDS011;109;19.806;-70.704;2023-04-03T07:57:25;15.00;;;5.97;;
249;SDS011;109;19.806;-70.704;2023-04-03T07:59:58;22.63;;;6.37;;
249;SDS011;109;19.806;-70.704;2023-04-03T08:02:24;24.03;;;7.30;;
249;SDS011;109;19.806;-70.704;2023-04-03T08:04:57;20.57;;;5.97;;
249;SDS011;109;19.806;-70.704;2023-04-03T08:07:24;18.77;;;6.30;;
249;SDS011;109;19.806;-70.704;2023-04-03T08:09:58;21.03;;;6.27;;
249;SDS011;109;19.806;-70.704;2023-04-03T08:12:24;17.70;;;5.90;;
249;SDS011;109;19.806;-70.704;2023-04-03T08:14:57;19.23;;;6.30;;
249;SDS011;109;19.806;-70.704;2023-04-03T08:17:25;21.97;;;6.60;;
249;SDS011;109;19.806;-70.704;2023-04-03T08:19:58;18.17;;;6.00;;
249;SDS011;109;19.806;-70.704;2023-04-03T08:22:24;24.90;;;6.87;;
249;SDS011;109;19.806;-70.704;2023-04-03T08:25:04;21.77;;;5.87;;
249;SDS011;109;19.806;-70.704;2023-04-03T08:27:38;16.43;;;5.83;;
249;SDS011;109;19.806;-70.704;2023-04-03T08:30:04;23.97;;;6.23;;
249;SDS011;109;19.806;-70.704;2023-04-03T08:32:38;17.00;;;6.27;;
249;SDS011;109;19.806;-70.704;2023-04-03T08:35:18;19.37;;;6.83;;
249;SDS011;109;19.806;-70.704;2023-04-03T08:37:46;20.77;;;6.50;;
249;SDS011;109;19.806;-70.704;2023-04-03T08:40:19;19.00;;;6.07;;
249;SDS011;109;19.806;-70.704;2023-04-03T08:45:56;23.10;;;5.37;;
249;SDS011;109;19.806;-70.704;2023-04-03T08:48:33;16.30;;;5.50;;
249;SDS011;109;19.806;-70.704;2023-04-03T08:51:15;16.17;;;5.60;;
249;SDS011;109;19.806;-70.704;2023-04-03T08:56:58;17.10;;;5.50;;
249;SDS011;109;19.806;-70.704;2023-04-03T08:59:29;18.37;;;5.43;;
249;SDS011;109;19.806;-70.704;2023-04-03T09:02:23;18.10;;;5.90;;
249;SDS011;109;19.806;-70.704;2023-04-03T09:05:02;15.23;;;5.87;;
249;SDS011;109;19.806;-70.704;2023-04-03T09:07:45;15.00;;;5.90;;
249;SDS011;109;19.806;-70.704;2023-04-03T09:10:37;16.50;;;6.33;;
249;SDS011;109;19.806;-70.704;2023-04-03T09:15:43;22.23;;;6.30;;
249;SDS011;109;19.806;-70.704;2023-04-03T09:18:20;24.43;;;6.60;;
249;SDS011;109;19.806;-70.704;2023-04-03T09:26:08;16.13;;;5.67;;
249;SDS011;109;19.806;-70.704;2023-04-03T09:29:11;22.43;;;6.60;;
249;SDS011;109;19.806;-70.704;2023-04-03T09:32:00;16.80;;;6.30;;
249;SDS011;109;19.806;-70.704;2023-04-03T09:34:41;25.13;;;6.60;;
249;SDS011;109;19.806;-70.704;2023-04-03T09:37:09;23.40;;;6.13;;
249;SDS011;109;19.806;-70.704;2023-04-03T09:39:49;16.00;;;5.87;;
249;SDS011;109;19.806;-70.704;2023-04-03T09:42:25;12.30;;;5.53;;
249;SDS011;109;19.806;-70.704;2023-04-03T09:44:59;18.30;;;5.50;;
249;SDS011;109;19.806;-70.704;2023-04-03T09:47:35;18.63;;;6.17;;
249;SDS011;109;19.806;-70.704;2023-04-03T09:52:47;37.80;;;6.07;;
249;SDS011;109;19.806;-70.704;2023-04-03T09:55:23;21.63;;;5.77;;
249;SDS011;109;19.806;-70.704;2023-04-03T09:58:03;17.90;;;5.60;;
249;SDS011;109;19.806;-70.704;2023-04-03T10:00:40;18.50;;;6.27;;
249;SDS011;109;19.806;-70.704;2023-04-03T10:03:22;22.57;;;6.33;;
249;SDS011;109;19.806;-70.704;2023-04-03T10:05:59;17.83;;;6.17;;
249;SDS011;109;19.806;-70.704;2023-04-03T10:08:30;25.20;;;5.87;;
249;SDS011;109;19.806;-70.704;2023-04-03T10:11:12;14.80;;;6.20;;
249;SDS011;109;19.806;-70.704;2023-04-03T10:13:52;22.70;;;6.37;;
249;SDS011;109;19.806;-70.704;2023-04-03T10:16:43;18.23;;;6.83;;
249;SDS011;109;19.806;-70.704;2023-04-03T10:19:40;15.23;;;5.90;;
249;SDS011;109;19.806;-70.704;2023-04-03T10:22:27;21.50;;;6.00;;
249;SDS011;109;19.806;-70.704;2023-04-03T10:25:21;19.60;;;5.90;;
249;SDS011;109;19.806;-70.704;2023-04-03T10:31:29;10.43;;;5.53;;
249;SDS011;109;19.806;-70.704;2023-04-03T10:42:57;17.83;;;5.97;;
249;SDS011;109;19.806;-70.704;2023-04-03T10:54:08;19.10;;;6.10;;
249;SDS011;109;19.806;-70.704;2023-04-03T10:56:40;17.80;;;6.50;;
249;SDS011;109;19.806;-70.704;2023-04-03T11:02:04;19.40;;;6.00;;
249;SDS011;109;19.806;-70.704;2023-04-03T11:04:39;18.20;;;6.30;;
249;SDS011;109;19.806;-70.704;2023-04-03T11:07:15;22.80;;;7.60;;
249;SDS011;109;19.806;-70.704;2023-04-03T11:09:50;16.17;;;6.13;;
249;SDS011;109;19.806;-70.704;2023-04-03T11:15:02;23.90;;;6.73;;
249;SDS011;109;19.806;-70.704;2023-04-03T11:17:33;21.10;;;6.20;;
249;SDS011;109;19.806;-70.704;2023-04-03T11:20:17;15.30;;;6.00;;
249;SDS011;109;19.806;-70.704;2023-04-03T11:23:04;16.37;;;6.10;;
249;SDS011;109;19.806;-70.704;2023-04-03T11:25:56;16.23;;;6.40;;
249;SDS011;109;19.806;-70.704;2023-04-03T11:28:32;13.67;;;5.87;;
249;SDS011;109;19.806;-70.704;2023-04-03T11:31:06;15.80;;;6.33;;
249;SDS011;109;19.806;-70.704;2023-04-03T11:33:56;22.57;;;6.73;;
249;SDS011;109;19.806;-70.704;2023-04-03T11:36:42;17.20;;;5.90;;
249;SDS011;109;19.806;-70.704;2023-04-03T11:41:49;17.00;;;5.63;;
249;SDS011;109;19.806;-70.704;2023-04-03T11:44:35;20.07;;;7.47;;
249;SDS011;109;19.806;-70.704;2023-04-03T11:47:04;24.43;;;6.47;;
249;SDS011;109;19.806;-70.704;2023-04-03T12:13:35;30.17;;;7.43;;
249;SDS011;109;19.806;-70.704;2023-04-03T12:16:03;16.70;;;6.87;;
249;SDS011;109;19.806;-70.704;2023-04-03T12:21:09;15.80;;;7.03;;
249;SDS011;109;19.806;-70.704;2023-04-03T12:24:00;23.80;;;6.50;;
249;SDS011;109;19.806;-70.704;2023-04-03T12:26:26;20.63;;;6.20;;
249;SDS011;109;19.806;-70.704;2023-04-03T12:28:57;14.87;;;5.80;;
249;SDS011;109;19.806;-70.704;2023-04-03T12:31:25;24.23;;;7.30;;
249;SDS011;109;19.806;-70.704;2023-04-03T12:45:10;33.83;;;8.00;;
249;SDS011;109;19.806;-70.704;2023-04-03T12:47:45;41.73;;;8.70;;
249;SDS011;109;19.806;-70.704;2023-04-03T12:53:04;24.70;;;8.53;;
249;SDS011;109;19.806;-70.704;2023-04-03T12:55:38;32.70;;;8.70;;
249;SDS011;109;19.806;-70.704;2023-04-03T12:58:24;32.10;;;7.70;;
249;SDS011;109;19.806;-70.704;2023-04-03T13:03:27;35.30;;;8.40;;
249;SDS011;109;19.806;-70.704;2023-04-03T13:05:56;37.63;;;8.03;;
249;SDS011;109;19.806;-70.704;2023-04-03T13:08:27;37.63;;;9.10;;
249;SDS011;109;19.806;-70.704;2023-04-03T13:11:04;28.57;;;7.53;;
249;SDS011;109;19.806;-70.704;2023-04-03T13:13:35;41.40;;;8.20;;
249;SDS011;109;19.806;-70.704;2023-04-03T13:16:10;24.70;;;8.00;;
249;SDS011;109;19.806;-70.704;2023-04-03T13:18:39;23.53;;;7.00;;
249;SDS011;109;19.806;-70.704;2023-04-03T13:23:43;49.03;;;9.70;;
249;SDS011;109;19.806;-70.704;2023-04-03T13:26:12;65.10;;;10.60;;
249;SDS011;109;19.806;-70.704;2023-04-03T13:28:42;37.67;;;7.40;;
249;SDS011;109;19.806;-70.704;2023-04-03T13:34:26;33.63;;;7.90;;
249;SDS011;109;19.806;-70.704;2023-04-03T13:36:33;70.93;;;12.03;;
249;SDS011;109;19.806;-70.704;2023-04-03T13:39:22;56.20;;;11.60;;
249;SDS011;109;19.806;-70.704;2023-04-03T13:41:52;80.07;;;11.90;;
249;SDS011;109;19.806;-70.704;2023-04-03T13:47:36;72.27;;;14.03;;
249;SDS011;109;19.806;-70.704;2023-04-03T13:49:58;49.40;;;11.27;;
249;SDS011;109;19.806;-70.704;2023-04-03T13:52:33;50.70;;;12.07;;
249;SDS011;109;19.806;-70.704;2023-04-03T13:57:50;92.60;;;14.63;;
249;SDS011;109;19.806;-70.704;2023-04-03T14:00:32;84.87;;;15.33;;
249;SDS011;109;19.806;-70.704;2023-04-03T14:05:59;52.10;;;7.57;;
249;SDS011;109;19.806;-70.704;2023-04-03T14:08:27;32.43;;;8.60;;
249;SDS011;109;19.806;-70.704;2023-04-03T14:10:53;40.90;;;10.83;;
249;SDS011;109;19.806;-70.704;2023-04-03T14:13:20;46.37;;;9.00;;
249;SDS011;109;19.806;-70.704;2023-04-03T14:15:47;44.73;;;8.80;;
249;SDS011;109;19.806;-70.704;2023-04-03T14:18:17;40.00;;;9.60;;
249;SDS011;109;19.806;-70.704;2023-04-03T14:20:46;43.83;;;9.60;;
249;SDS011;109;19.806;-70.704;2023-04-03T14:23:13;40.17;;;9.50;;
249;SDS011;109;19.806;-70.704;2023-04-03T14:25:41;43.63;;;10.20;;
249;SDS011;109;19.806;-70.704;2023-04-03T14:28:18;64.63;;;10.90;;
249;SDS011;109;19.806;-70.704;2023-04-03T14:30:48;59.00;;;9.67;;
249;SDS011;109;19.806;-70.704;2023-04-03T14:33:17;33.27;;;8.00;;
249;SDS011;109;19.806;-70.704;2023-04-03T14:35:47;55.23;;;10.67;;
249;SDS011;109;19.806;-70.704;2023-04-03T14:38:21;46.07;;;10.20;;
249;SDS011;109;19.806;-70.704;2023-04-03T14:40:50;40.47;;;9.30;;
249;SDS011;109;19.806;-70.704;2023-04-03T14:43:17;29.40;;;9.03;;
249;SDS011;109;19.806;-70.704;2023-04-03T14:45:44;52.77;;;10.07;;
249;SDS011;109;19.806;-70.704;2023-04-03T14:48:21;40.97;;;8.77;;
249;SDS011;109;19.806;-70.704;2023-04-03T14:50:50;37.53;;;9.60;;
249;SDS011;109;19.806;-70.704;2023-04-03T14:53:18;42.10;;;9.80;;
249;SDS011;109;19.806;-70.704;2023-04-03T14:55:48;35.53;;;10.80;;
249;SDS011;109;19.806;-70.704;2023-04-03T14:58:16;57.27;;;12.53;;
249;SDS011;109;19.806;-70.704;2023-04-03T15:00:44;67.10;;;12.13;;
249;SDS011;109;19.806;-70.704;2023-04-03T15:03:18;43.87;;;10.27;;
249;SDS011;109;19.806;-70.704;2023-04-03T15:05:47;36.20;;;10.10;;
249;SDS011;109;19.806;-70.704;2023-04-03T15:08:19;35.10;;;10.63;;
249;SDS011;109;19.806;-70.704;2023-04-03T15:10:50;26.70;;;8.70;;
249;SDS011;109;19.806;-70.704;2023-04-03T15:13:22;45.37;;;10.47;;
249;SDS011;109;19.806;-70.704;2023-04-03T15:15:49;38.83;;;9.83;;
249;SDS011;109;19.806;-70.704;2023-04-03T15:18:24;38.70;;;10.13;;
249;SDS011;109;19.806;-70.704;2023-04-03T15:20:52;38.37;;;9.40;;
249;SDS011;109;19.806;-70.704;2023-04-03T15:23:20;42.57;;;10.20;;
249;SDS011;109;19.806;-70.704;2023-04-03T15:25:51;57.30;;;10.67;;
249;SDS011;109;19.806;-70.704;2023-04-03T15:28:25;54.43;;;10.30;;
249;SDS011;109;19.806;-70.704;2023-04-03T15:30:58;43.90;;;10.83;;
249;SDS011;109;19.806;-70.704;2023-04-03T15:33:25;36.33;;;8.10;;
249;SDS011;109;19.806;-70.704;2023-04-03T15:35:52;43.90;;;10.00;;
249;SDS011;109;19.806;-70.704;2023-04-03T15:38:19;32.30;;;9.97;;
249;SDS011;109;19.806;-70.704;2023-04-03T15:40:46;26.43;;;7.80;;
249;SDS011;109;19.806;-70.704;2023-04-03T15:43:12;56.27;;;11.30;;
249;SDS011;109;19.806;-70.704;2023-04-03T15:45:39;31.33;;;8.30;;
249;SDS011;109;19.806;-70.704;2023-04-03T15:48:07;61.83;;;10.30;;
249;SDS011;109;19.806;-70.704;2023-04-03T15:50:34;31.93;;;8.30;;
249;SDS011;109;19.806;-70.704;2023-04-03T15:53:01;42.40;;;9.27;;
249;SDS011;109;19.806;-70.704;2023-04-03T15:55:29;37.00;;;9.73;;
249;SDS011;109;19.806;-70.704;2023-04-03T15:57:57;34.60;;;9.90;;
249;SDS011;109;19.806;-70.704;2023-04-03T16:00:24;30.70;;;8.87;;
249;SDS011;109;19.806;-70.704;2023-04-03T16:02:53;40.20;;;9.03;;
249;SDS011;109;19.806;-70.704;2023-04-03T16:05:24;35.47;;;9.30;;
249;SDS011;109;19.806;-70.704;2023-04-03T16:07:51;28.77;;;8.13;;
249;SDS011;109;19.806;-70.704;2023-04-03T16:10:19;36.17;;;9.13;;
249;SDS011;109;19.806;-70.704;2023-04-03T16:12:45;35.23;;;8.63;;
249;SDS011;109;19.806;-70.704;2023-04-03T16:15:12;28.77;;;8.30;;
249;SDS011;109;19.806;-70.704;2023-04-03T16:17:39;52.90;;;8.90;;
249;SDS011;109;19.806;-70.704;2023-04-03T16:20:09;40.37;;;9.37;;
249;SDS011;109;19.806;-70.704;2023-04-03T16:22:37;46.97;;;8.43;;
249;SDS011;109;19.806;-70.704;2023-04-03T16:25:05;34.37;;;7.60;;
249;SDS011;109;19.806;-70.704;2023-04-03T16:27:34;54.70;;;8.73;;
249;SDS011;109;19.806;-70.704;2023-04-03T16:30:01;37.23;;;7.07;;
249;SDS011;109;19.806;-70.704;2023-04-03T16:32:29;43.83;;;6.30;;
249;SDS011;109;19.806;-70.704;2023-04-03T16:34:57;33.87;;;6.53;;
249;SDS011;109;19.806;-70.704;2023-04-03T16:37:24;35.07;;;6.47;;
249;SDS011;109;19.806;-70.704;2023-04-03T16:39:51;34.13;;;7.13;;
249;SDS011;109;19.806;-70.704;2023-04-03T16:42:18;36.40;;;7.70;;
249;SDS011;109;19.806;-70.704;2023-04-03T16:44:44;44.40;;;8.50;;
249;SDS011;109;19.806;-70.704;2023-04-03T16:47:11;35.20;;;6.43;;
249;SDS011;109;19.806;-70.704;2023-04-03T16:49:39;34.83;;;6.23;;
249;SDS011;109;19.806;-70.704;2023-04-03T16:52:06;43.57;;;7.23;;
249;SDS011;109;19.806;-70.704;2023-04-03T16:54:33;49.03;;;9.07;;
249;SDS011;109;19.806;-70.704;2023-04-03T16:56:59;29.67;;;6.13;;
249;SDS011;109;19.806;-70.704;2023-04-03T16:59:26;35.60;;;6.70;;
249;SDS011;109;19.806;-70.704;2023-04-03T17:01:52;28.97;;;6.83;;
249;SDS011;109;19.806;-70.704;2023-04-03T17:04:19;35.43;;;7.33;;
249;SDS011;109;19.806;-70.704;2023-04-03T17:06:46;30.53;;;6.93;;
249;SDS011;109;19.806;-70.704;2023-04-03T17:09:13;28.03;;;5.60;;
249;SDS011;109;19.806;-70.704;2023-04-03T17:11:40;32.20;;;7.20;;
249;SDS011;109;19.806;-70.704;2023-04-03T17:14:07;37.77;;;6.57;;
249;SDS011;109;19.806;-70.704;2023-04-03T17:16:34;24.90;;;6.50;;
249;SDS011;109;19.806;-70.704;2023-04-03T17:19:02;39.90;;;6.80;;
249;SDS011;109;19.806;-70.704;2023-04-03T17:21:30;29.40;;;6.77;;
249;SDS011;109;19.806;-70.704;2023-04-03T17:23:59;32.80;;;5.73;;